Daniel Field
KDNL : now visible

Airfield :











YOU CAN JOIN US ON...

 
LOGIN :

Register | Disclaimer

   EN    FR    IT 

 









Legend :    VFR   Marginal VFR   IFR   Intensive IFR   Very Intensive IFR
Visi :
Ceiling :
>= 8 km
>= 3000ft
5 to 8 km
1000 to 3000 ft
1500m to 5 km
500 to 1000 ft
800 to 1500m
200 to 500 ft
< 800m
< 200 ft
Symbols :   Thunderstorms  Fog  Heavy snow  Heavy precipitations  Wind > 20 kt






- Airport Elevation : 423 ft


KDNL - Daniel Field

CURRENT METAR :
  • 192341Z AUTO 05011KT 5SM HZ BKN009 OVC013 11/08 A3032 RMK AO2 RAE33 CIG 006V012 P0000 T01110083

EXPIRED METARs :
  • 192307Z AUTO 05010KT 3SM -RA OVC011 12/09 A3031 RMK AO2 P0000 T01170089
  • 192253Z AUTO 05012KT 2 1/2SM -RA OVC011 12/09 A3030 RMK AO2 RAB48 SLP259 P0000 T01170089
  • 192153Z AUTO 06009KT 10SM OVC012 13/09 A3029 RMK AO2 SLP254 T01280094
  • 192053Z AUTO 05012G18KT 10SM BKN012 OVC020 13/10 A3027 RMK AO2 SLP249 60002 T01330100 53000

TAF KDNL
Valid from the 19 at 22:00 until the 20 at 18:00 UTC


192212Z 1922/2018 06009KT 6SM BR OVC012
FM201000 05007KT 6SM -RA BR OVC012
FM201300 06008KT 4SM -RA BR OVC008



MET'MAP, your aeronautical weather chart ! - Copyright ORBIFLY December 2007 - Disclaimer

ORBIFLY MET'MAP TEAM :

Programming & Development : Alexandra Zaïnal
Concept & original design : Baudouin d'Aumeries
Assistance for programming : Marc-Olivier Méhu
Technical & hardware support : Manuel Goepfert

Contact : metmap@orbifly.com




SOURCES & CREDITS :

   NOAA       Earth
Advisory